createdAt,value
2023-04-13T00:04:01.448Z,8.00
2023-04-13T00:09:07.836Z,8.00
2023-04-13T00:14:14.708Z,7.60
2023-04-13T00:19:20.443Z,7.60
2023-04-13T00:24:26.233Z,7.90
2023-04-13T00:29:31.906Z,7.50
2023-04-13T00:34:38.851Z,7.60
2023-04-13T00:39:48.283Z,7.30
2023-04-13T00:44:56.282Z,7.30
2023-04-13T00:50:04.502Z,7.50
2023-04-13T00:55:11.153Z,7.40
2023-04-13T01:00:20.617Z,7.70
2023-04-13T01:05:27.451Z,7.60
2023-04-13T01:10:51.647Z,7.90
2023-04-13T01:16:04.440Z,8.10
2023-04-13T01:21:14.324Z,7.70
2023-04-13T01:26:22.689Z,7.60
2023-04-13T01:31:29.936Z,7.60
2023-04-13T01:36:36.402Z,7.80
2023-04-13T01:41:42.827Z,7.90
2023-04-13T01:46:51.137Z,8.00
2023-04-13T01:51:57.446Z,7.90
2023-04-13T01:57:03.936Z,8.00
2023-04-13T02:02:11.387Z,7.90
2023-04-13T02:07:19.031Z,7.80
2023-04-13T02:12:25.039Z,7.80
2023-04-13T02:17:31.606Z,7.50
2023-04-13T02:22:40.039Z,7.70
2023-04-13T02:27:45.609Z,7.70
2023-04-13T02:32:51.680Z,7.60
2023-04-13T02:37:59.924Z,7.40
2023-04-13T02:43:05.697Z,7.40
2023-04-13T02:48:12.402Z,7.30
2023-04-13T02:53:18.771Z,7.50
2023-04-13T02:58:26.468Z,7.70
2023-04-13T03:03:34.097Z,7.70
2023-04-13T03:08:40.368Z,7.70
2023-04-13T03:13:47.222Z,7.90
2023-04-13T03:18:54.638Z,7.60
2023-04-13T03:24:01.096Z,7.50
2023-04-13T03:29:07.822Z,7.40
2023-04-13T03:34:14.017Z,7.30
2023-04-13T03:39:19.989Z,7.30
2023-04-13T03:44:26.295Z,7.50
2023-04-13T03:49:32.047Z,7.40
2023-04-13T03:54:38.648Z,7.40
2023-04-13T03:59:44.526Z,7.30
2023-04-13T04:04:50.168Z,7.20
2023-04-13T04:09:55.921Z,7.30
2023-04-13T04:15:01.757Z,7.50
2023-04-13T04:20:08.833Z,7.20
2023-04-13T04:25:19.805Z,7.30
2023-04-13T04:30:28.255Z,7.00
2023-04-13T04:35:34.618Z,7.00
2023-04-13T04:40:41.870Z,6.60
2023-04-13T04:45:49.402Z,6.70
2023-04-13T04:50:56.216Z,7.00
2023-04-13T04:56:02.335Z,7.10
2023-04-13T05:01:09.309Z,7.20
2023-04-13T05:06:15.346Z,7.30
2023-04-13T05:11:22.025Z,7.20
2023-04-13T05:16:29.895Z,7.20
2023-04-13T05:21:35.807Z,7.50
2023-04-13T05:26:43.735Z,7.80
2023-04-13T05:31:50.282Z,7.80
2023-04-13T05:36:58.499Z,7.90
2023-04-13T05:42:04.745Z,7.80
2023-04-13T05:47:11.030Z,7.90
2023-04-13T05:52:17.180Z,8.10
2023-04-13T05:57:23.546Z,8.00
2023-04-13T06:02:31.531Z,8.10
2023-04-13T06:07:37.890Z,8.20
2023-04-13T06:12:46.355Z,8.30
2023-04-13T06:17:54.611Z,8.40
2023-04-13T06:23:00.481Z,8.50
2023-04-13T06:28:06.803Z,8.90
2023-04-13T06:33:13.342Z,8.80
2023-04-13T06:38:20.110Z,9.00
2023-04-13T06:43:29.440Z,9.20
2023-04-13T06:48:34.378Z,9.10
2023-04-13T06:53:41.945Z,9.20
2023-04-13T06:58:48.784Z,9.30
2023-04-13T07:03:57.170Z,9.30
2023-04-13T07:09:03.600Z,9.30
2023-04-13T07:14:11.563Z,9.10
2023-04-13T07:19:23.058Z,8.60
2023-04-13T07:24:30.252Z,8.70
2023-04-13T07:29:37.367Z,8.80
2023-04-13T07:34:43.426Z,9.00
2023-04-13T07:39:50.212Z,9.10
2023-04-13T07:45:00.122Z,9.20
2023-04-13T07:50:07.402Z,8.90
2023-04-13T07:55:15.567Z,9.10
2023-04-13T08:00:23.061Z,9.30
2023-04-13T08:05:29.187Z,9.30
2023-04-13T08:10:36.235Z,9.10
2023-04-13T08:15:42.297Z,8.80
2023-04-13T08:20:49.260Z,8.70
2023-04-13T08:25:55.713Z,8.80
2023-04-13T08:31:02.442Z,8.80
2023-04-13T08:36:08.898Z,9.30
2023-04-13T08:41:15.058Z,9.60
2023-04-13T08:46:22.092Z,9.70
2023-04-13T08:51:30.973Z,9.50
2023-04-13T08:56:46.350Z,9.70
2023-04-13T09:01:49.629Z,9.70
2023-04-13T09:06:55.816Z,9.80
2023-04-13T09:12:03.586Z,9.60
2023-04-13T09:17:10.775Z,9.50
2023-04-13T09:22:18.698Z,9.20
2023-04-13T09:27:24.973Z,9.40
2023-04-13T09:32:31.272Z,9.30
2023-04-13T09:37:39.911Z,9.10
2023-04-13T09:43:03.116Z,9.00
2023-04-13T09:48:20.904Z,8.90
2023-04-13T09:53:28.833Z,8.70
2023-04-13T09:58:45.723Z,8.70
2023-04-13T10:03:52.073Z,8.70
2023-04-13T10:08:58.301Z,8.50
2023-04-13T10:14:07.805Z,8.50
2023-04-13T10:19:17.298Z,8.40
2023-04-13T10:24:24.689Z,8.40
2023-04-13T10:29:31.256Z,8.20
2023-04-13T10:34:38.411Z,8.30
2023-04-13T10:39:46.761Z,8.60
2023-04-13T10:44:54.807Z,8.70
2023-04-13T10:50:02.194Z,8.90
2023-04-13T10:55:10.092Z,9.10
2023-04-13T11:00:29.337Z,9.00
2023-04-13T11:05:30.335Z,9.00
2023-04-13T11:10:36.392Z,8.70
2023-04-13T11:15:44.728Z,8.20
2023-04-13T11:20:50.358Z,8.10
2023-04-13T11:26:00.179Z,7.80
2023-04-13T11:31:07.674Z,7.80
2023-04-13T11:36:14.287Z,7.80
2023-04-13T11:41:20.680Z,8.00
2023-04-13T11:46:27.518Z,7.80
2023-04-13T11:51:33.233Z,8.00
2023-04-13T11:56:39.242Z,8.30
2023-04-13T12:02:00.090Z,8.40
2023-04-13T12:07:01.469Z,8.50
2023-04-13T12:17:41.115Z,8.40
2023-04-13T12:27:54.536Z,8.50
2023-04-13T12:33:02.179Z,8.30
2023-04-13T12:38:09.792Z,8.40
2023-04-13T12:43:17.654Z,8.40
2023-04-13T12:48:24.674Z,8.50
2023-04-13T12:53:35.281Z,8.70
2023-04-13T12:58:42.114Z,8.80
2023-04-13T13:03:52.292Z,8.80
2023-04-13T13:08:59.884Z,8.80
2023-04-13T13:14:08.229Z,8.70
2023-04-13T13:19:15.475Z,8.70
2023-04-13T13:24:26.386Z,8.90
2023-04-13T13:29:35.767Z,9.00
2023-04-13T13:34:43.382Z,9.10
2023-04-13T13:39:51.400Z,8.80
2023-04-13T13:44:58.001Z,9.20
2023-04-13T13:50:05.486Z,9.20
2023-04-13T13:55:11.810Z,9.10
2023-04-13T14:00:19.793Z,9.10
2023-04-13T14:05:25.496Z,9.20
2023-04-13T14:10:32.219Z,9.20
2023-04-13T14:15:38.566Z,9.20
2023-04-13T14:20:44.757Z,9.20
2023-04-13T14:25:51.027Z,9.20
2023-04-13T14:30:57.348Z,9.30
2023-04-13T14:36:03.307Z,9.20
2023-04-13T14:41:10.141Z,9.30
2023-04-13T14:46:17.046Z,8.90
2023-04-13T14:51:23.297Z,8.80
2023-04-13T14:56:30.537Z,8.70
2023-04-13T15:01:36.190Z,8.80
2023-04-13T15:06:43.697Z,8.70
2023-04-13T15:11:49.802Z,8.50
2023-04-13T15:16:56.017Z,8.50
2023-04-13T15:22:03.135Z,8.50
2023-04-13T15:27:09.900Z,8.50
2023-04-13T15:32:16.158Z,8.40
2023-04-13T15:37:22.843Z,8.30
2023-04-13T15:42:29.882Z,8.40
2023-04-13T15:47:36.541Z,8.70
2023-04-13T15:52:44.557Z,8.70
2023-04-13T15:57:51.802Z,8.80
2023-04-13T16:02:58.443Z,8.90
2023-04-13T16:08:04.254Z,9.00
2023-04-13T16:13:13.393Z,8.60
2023-04-13T16:18:22.212Z,8.20
2023-04-13T16:23:27.801Z,8.20
2023-04-13T16:28:34.597Z,7.90
2023-04-13T16:33:41.211Z,7.90
2023-04-13T16:38:47.705Z,7.90
2023-04-13T16:43:55.031Z,7.60
2023-04-13T16:49:01.048Z,7.50
2023-04-13T16:54:07.110Z,7.80
2023-04-13T16:59:13.507Z,7.60
2023-04-13T17:04:19.933Z,7.30
2023-04-13T17:09:26.631Z,7.30
2023-04-13T17:14:34.461Z,6.90
2023-04-13T17:19:41.199Z,6.90
2023-04-13T17:24:47.732Z,6.90
2023-04-13T17:29:54.281Z,6.60
2023-04-13T17:35:00.238Z,6.60
2023-04-13T17:40:06.298Z,6.40
2023-04-13T17:45:13.907Z,6.30
2023-04-13T17:50:22.355Z,6.40
2023-04-13T17:55:28.683Z,6.40
2023-04-13T18:00:34.539Z,6.50
2023-04-13T18:05:44.625Z,6.70
2023-04-13T18:10:51.289Z,6.60
2023-04-13T18:15:58.335Z,6.50
2023-04-13T18:21:04.847Z,6.40
2023-04-13T18:26:11.323Z,6.40
2023-04-13T18:31:17.785Z,6.60
2023-04-13T18:36:24.917Z,6.50
2023-04-13T18:41:32.638Z,6.50
2023-04-13T18:46:39.568Z,6.30
2023-04-13T18:51:45.729Z,6.20
2023-04-13T18:56:52.028Z,6.20
2023-04-13T19:01:58.600Z,6.40
2023-04-13T19:07:06.318Z,6.40
2023-04-13T19:12:12.829Z,6.30
2023-04-13T19:17:20.898Z,6.30
2023-04-13T19:22:27.868Z,6.40
2023-04-13T19:27:33.848Z,6.40
2023-04-13T19:32:41.917Z,6.40
2023-04-13T19:37:48.870Z,6.40
2023-04-13T19:42:54.804Z,6.40
2023-04-13T19:48:02.548Z,6.30
2023-04-13T19:53:09.354Z,6.40
2023-04-13T19:58:16.182Z,6.50
2023-04-13T20:03:22.649Z,6.60
2023-04-13T20:08:28.650Z,6.10
2023-04-13T20:13:34.944Z,6.20
2023-04-13T20:18:41.234Z,6.50
2023-04-13T20:23:47.043Z,6.50
2023-04-13T20:28:58.666Z,6.50
2023-04-13T20:34:05.441Z,6.60
2023-04-13T20:39:11.782Z,6.40
2023-04-13T20:44:19.045Z,6.30
2023-04-13T20:49:25.946Z,6.30
2023-04-13T20:54:32.333Z,6.30
2023-04-13T20:59:38.393Z,6.50
2023-04-13T21:04:44.258Z,6.60
2023-04-13T21:09:50.668Z,6.60
2023-04-13T21:14:57.253Z,6.30
2023-04-13T21:20:05.399Z,6.50
2023-04-13T21:25:11.555Z,6.50
2023-04-13T21:30:17.669Z,6.40
2023-04-13T21:35:25.602Z,6.60
2023-04-13T21:40:32.499Z,6.60
2023-04-13T21:45:39.018Z,6.60
2023-04-13T21:50:45.138Z,6.50
2023-04-13T21:55:51.825Z,6.20
2023-04-13T22:00:58.823Z,6.30
2023-04-13T22:06:08.249Z,6.10
2023-04-13T22:11:13.722Z,6.10
2023-04-13T22:16:20.474Z,6.50
2023-04-13T22:21:28.229Z,6.40
2023-04-13T22:26:35.143Z,6.30
2023-04-13T22:31:40.912Z,6.10
2023-04-13T22:36:47.010Z,6.10
2023-04-13T22:41:53.367Z,6.00
2023-04-13T22:46:59.367Z,6.20
2023-04-13T22:52:05.635Z,6.30
2023-04-13T22:57:13.373Z,6.10
2023-04-13T23:02:20.354Z,6.40
2023-04-13T23:07:26.844Z,6.20
2023-04-13T23:12:33.740Z,6.10
2023-04-13T23:17:39.661Z,6.30
2023-04-13T23:22:45.581Z,6.20
2023-04-13T23:27:51.961Z,6.10
2023-04-13T23:32:59.325Z,6.10
2023-04-13T23:38:05.163Z,6.00
2023-04-13T23:43:12.593Z,6.20
2023-04-13T23:48:18.420Z,6.20
2023-04-13T23:53:25.242Z,6.20
2023-04-13T23:58:31.992Z,6.10
